Time;durP1;ratioP1;P1;durP2;ratioP2;P2;SDS_P1;SDS_P2;PMS_P1;PMS_P2;Temp;Humidity;BMP_temperature;BMP_pressure;BME280_temperature;BME280_humidity;BME280_pressure;Samples;Min_cycle;Max_cycle;Signal;HPM_P1;HPM_P2
2022/03/04 00:00:39;;;;;;;61.88;37.55;;;;;;;-2.65;100.00;92788.94;4972249;28;20046;-84
2022/03/04 00:03:06;;;;;;;60.63;37.55;;;;;;;-2.68;100.00;92790.00;4972206;28;20509;-85
2022/03/04 00:05:34;;;;;;;69.32;40.45;;;;;;;-2.70;100.00;92784.31;4972356;28;20051;-85
2022/03/04 00:08:00;;;;;;;62.30;38.28;;;;;;;-2.66;100.00;92792.34;4972150;28;20497;-85
2022/03/04 00:10:27;;;;;;;65.53;38.42;;;;;;;-2.72;100.00;92791.22;4972128;28;20544;-85
2022/03/04 00:12:55;;;;;;;60.78;37.28;;;;;;;-2.75;100.00;92786.44;4971983;28;20054;-85
2022/03/04 00:15:22;;;;;;;60.53;35.05;;;;;;;-2.73;100.00;92785.38;4972722;28;20616;-85
2022/03/04 00:17:50;;;;;;;58.72;35.85;;;;;;;-2.78;100.00;92785.00;4972263;28;20102;-85
2022/03/04 00:20:17;;;;;;;66.22;37.53;;;;;;;-2.79;100.00;92787.66;4972171;28;20047;-85
2022/03/04 00:22:46;;;;;;;63.25;38.67;;;;;;;-2.88;100.00;92774.22;4972116;28;20050;-85
2022/03/04 00:25:13;;;;;;;84.43;44.33;;;;;;;-2.80;100.00;92784.34;4971843;28;20062;-85
2022/03/04 00:27:40;;;;;;;66.97;38.10;;;;;;;-2.82;100.00;92786.22;4970413;28;20046;-85
2022/03/04 00:30:08;;;;;;;54.03;32.10;;;;;;;-2.81;100.00;92785.28;4971378;28;20097;-85
2022/03/04 00:32:35;;;;;;;41.30;25.85;;;;;;;-2.89;100.00;92785.97;4971504;28;20607;-85
2022/03/04 00:35:02;;;;;;;36.58;23.27;;;;;;;-2.88;100.00;92784.28;4968910;28;20044;-85
2022/03/04 00:37:29;;;;;;;38.67;23.45;;;;;;;-2.91;100.00;92787.84;4971640;28;20519;-85
2022/03/04 00:39:57;;;;;;;62.63;34.35;;;;;;;-2.93;100.00;92783.88;4971849;28;20051;-85
2022/03/04 00:42:24;;;;;;;37.67;24.77;;;;;;;-3.05;100.00;92784.06;4972122;28;20047;-85
2022/03/04 00:44:51;;;;;;;51.25;31.23;;;;;;;-3.09;100.00;92791.06;4972037;28;20055;-85
2022/03/04 00:47:18;;;;;;;57.92;34.50;;;;;;;-3.16;100.00;92790.03;4971823;28;20051;-86
2022/03/04 00:49:44;;;;;;;53.58;31.02;;;;;;;-3.19;100.00;92795.34;4971971;28;20540;-86
2022/03/04 00:52:11;;;;;;;62.83;36.40;;;;;;;-3.30;100.00;92786.22;4971828;28;20058;-85
2022/03/04 00:54:38;;;;;;;59.30;35.78;;;;;;;-3.44;100.00;92786.66;4971522;28;20151;-85
2022/03/04 00:57:07;;;;;;;66.00;37.90;;;;;;;-3.47;100.00;92785.22;4971960;28;20055;-85
2022/03/04 00:59:33;;;;;;;66.72;37.80;;;;;;;-3.44;100.00;92781.63;4971858;28;20058;-85
2022/03/04 01:02:00;;;;;;;76.45;44.92;;;;;;;-3.47;100.00;92782.72;4971872;28;20055;-85
2022/03/04 01:04:27;;;;;;;85.82;48.65;;;;;;;-3.52;100.00;92784.84;4971788;28;20051;-86
2022/03/04 01:06:54;;;;;;;91.13;50.35;;;;;;;-3.66;100.00;92766.72;4973267;28;20047;-86
2022/03/04 01:09:21;;;;;;;90.50;53.42;;;;;;;-3.68;100.00;92771.09;4975225;28;20584;-85
2022/03/04 01:11:47;;;;;;;72.07;43.35;;;;;;;-3.76;100.00;92749.19;4975468;28;20062;-86
2022/03/04 01:14:19;;;;;;;77.25;44.03;;;;;;;-3.62;100.00;92768.06;4975284;28;20058;-86
2022/03/04 01:16:46;;;;;;;69.78;42.38;;;;;;;-3.58;100.00;92761.03;4975175;28;20059;-85
2022/03/04 01:19:13;;;;;;;68.68;39.20;;;;;;;-3.52;100.00;92763.00;4975082;28;20050;-85
2022/03/04 01:21:40;;;;;;;59.58;34.88;;;;;;;-3.46;100.00;92756.66;4974992;28;20425;-86
2022/03/04 01:24:08;;;;;;;57.00;31.60;;;;;;;-3.45;100.00;92748.19;4975112;28;20094;-86
2022/03/04 01:26:34;;;;;;;45.53;28.23;;;;;;;-3.45;100.00;92750.72;4975209;28;20078;-86
2022/03/04 01:29:01;;;;;;;48.88;30.30;;;;;;;-3.46;100.00;92743.31;4975065;28;20055;-85
2022/03/04 01:31:30;;;;;;;45.35;28.75;;;;;;;-3.38;100.00;92744.22;4975012;28;20062;-85
2022/03/04 01:33:56;;;;;;;54.35;31.98;;;;;;;-3.37;100.00;92735.75;4974866;28;20114;-85
2022/03/04 01:36:24;;;;;;;58.42;34.10;;;;;;;-3.49;100.00;92734.34;4974857;28;20069;-85
2022/03/04 01:38:50;;;;;;;52.22;32.97;;;;;;;-3.38;100.00;92738.41;4974991;28;20106;-85
2022/03/04 01:41:17;;;;;;;54.47;34.60;;;;;;;-3.37;100.00;92748.31;4974962;28;20051;-85
2022/03/04 01:43:44;;;;;;;52.92;33.97;;;;;;;-3.33;100.00;92731.25;4974809;28;20047;-85
2022/03/04 01:46:16;;;;;;;53.70;32.30;;;;;;;-3.41;100.00;92718.59;4974668;28;20050;-85
2022/03/04 01:48:46;;;;;;;46.85;26.27;;;;;;;-3.41;100.00;92723.59;4974616;28;20098;-85
2022/03/04 01:51:13;;;;;;;48.45;28.77;;;;;;;-3.38;100.00;92735.91;4974713;28;20058;-86
2022/03/04 01:53:40;;;;;;;61.10;35.47;;;;;;;-3.44;100.00;92726.38;4974878;28;20047;-86
2022/03/04 01:56:08;;;;;;;58.83;33.75;;;;;;;-3.50;100.00;92721.00;4974608;28;20125;-86
2022/03/04 01:58:35;;;;;;;62.88;35.75;;;;;;;-3.44;100.00;92713.81;4974481;28;20489;-86
2022/03/04 02:01:02;;;;;;;71.05;37.85;;;;;;;-3.51;100.00;92701.03;4974395;28;20046;-86
2022/03/04 02:03:29;;;;;;;61.80;33.67;;;;;;;-3.47;100.00;92699.03;4974275;28;20054;-85
2022/03/04 02:05:57;;;;;;;49.47;26.90;;;;;;;-3.37;100.00;92717.38;4974502;28;20058;-86
2022/03/04 02:08:24;;;;;;;54.22;31.20;;;;;;;-3.38;100.00;92715.81;4974474;28;20050;-86
2022/03/04 02:10:51;;;;;;;48.95;29.38;;;;;;;-3.52;100.00;92714.53;4974422;28;20050;-86
2022/03/04 02:13:18;;;;;;;58.22;34.47;;;;;;;-3.44;100.00;92704.59;4974064;28;20059;-86
2022/03/04 02:15:46;;;;;;;58.55;33.38;;;;;;;-3.40;100.00;92702.59;4974141;28;20075;-86
2022/03/04 02:18:14;;;;;;;56.17;31.27;;;;;;;-3.38;100.00;92688.97;4973135;28;20520;-86
2022/03/04 02:20:43;;;;;;;67.05;37.20;;;;;;;-3.45;100.00;92699.69;4974091;28;20445;-86
2022/03/04 02:23:13;;;;;;;51.38;30.83;;;;;;;-3.65;100.00;92709.81;4974146;28;20138;-86
2022/03/04 02:25:42;;;;;;;40.78;26.70;;;;;;;-3.73;100.00;92707.97;4974057;28;20050;-86
2022/03/04 02:28:10;;;;;;;37.13;22.67;;;;;;;-3.80;100.00;92699.41;4974004;28;20059;-87
2022/03/04 02:30:37;;;;;;;36.95;21.95;;;;;;;-3.99;100.00;92688.44;4973736;28;20489;-86
2022/03/04 02:33:05;;;;;;;33.08;20.52;;;;;;;-3.98;100.00;92681.72;4973790;28;20526;-86
2022/03/04 02:35:33;;;;;;;31.80;19.60;;;;;;;-3.82;100.00;92702.03;4973989;28;20054;-86
2022/03/04 02:38:00;;;;;;;31.75;21.67;;;;;;;-3.80;100.00;92687.63;4973751;28;20043;-86
2022/03/04 02:40:29;;;;;;;35.92;23.15;;;;;;;-3.62;100.00;92695.25;4973707;28;20046;-86
2022/03/04 02:42:56;;;;;;;40.40;25.48;;;;;;;-3.64;100.00;92673.72;4973655;28;20047;-86
2022/03/04 02:45:23;;;;;;;41.75;25.30;;;;;;;-3.52;100.00;92685.19;4973776;28;20047;-86
2022/03/04 02:47:50;;;;;;;42.45;26.15;;;;;;;-3.47;100.00;92687.28;4973502;28;20485;-86
2022/03/04 02:50:17;;;;;;;41.25;26.60;;;;;;;-3.53;100.00;92677.78;4973402;28;20502;-86
2022/03/04 02:52:44;;;;;;;41.25;27.30;;;;;;;-3.45;100.00;92692.16;4973526;28;20054;-86
2022/03/04 02:55:12;;;;;;;41.83;24.90;;;;;;;-3.45;100.00;92685.44;4973378;28;20118;-86
2022/03/04 02:57:43;;;;;;;43.25;25.35;;;;;;;-3.44;100.00;92681.19;4973278;28;20050;-86
2022/03/04 03:00:11;;;;;;;37.13;21.98;;;;;;;-3.49;100.00;92692.44;4973474;28;20047;-87
2022/03/04 03:02:38;;;;;;;34.53;21.77;;;;;;;-3.78;100.00;92642.31;4973308;28;20125;-87
2022/03/04 03:05:06;;;;;;;44.67;23.77;;;;;;;-3.64;100.00;92681.25;4973244;28;20405;-87
2022/03/04 03:07:33;;;;;;;41.30;25.08;;;;;;;-3.82;100.00;92663.59;4973167;28;20055;-87
2022/03/04 03:10:01;;;;;;;52.10;28.48;;;;;;;-3.83;100.00;92667.03;4973086;28;20055;-86
2022/03/04 03:12:30;;;;;;;73.22;39.67;;;;;;;-3.86;100.00;92688.16;4972921;28;20046;-87
2022/03/04 03:14:58;;;;;;;44.70;26.75;;;;;;;-4.05;100.00;92676.44;4973054;28;20051;-87
2022/03/04 03:17:27;;;;;;;40.85;24.52;;;;;;;-4.00;100.00;92689.38;4973072;28;20114;-87
2022/03/04 03:19:54;;;;;;;38.17;25.60;;;;;;;-4.05;100.00;92684.78;4972998;28;20060;-87
2022/03/04 03:22:22;;;;;;;36.05;22.25;;;;;;;-4.09;100.00;92693.47;4972922;28;20058;-87
2022/03/04 03:24:49;;;;;;;33.08;21.70;;;;;;;-4.08;100.00;92687.53;4973025;28;20058;-86
2022/03/04 03:27:16;;;;;;;36.83;22.25;;;;;;;-4.00;100.00;92689.38;4972746;28;20432;-87
2022/03/04 03:29:45;;;;;;;34.67;22.75;;;;;;;-3.96;100.00;92690.69;4972739;28;20054;-86
2022/03/04 03:32:14;;;;;;;36.35;22.58;;;;;;;-4.00;100.00;92694.41;4972745;28;20445;-86
2022/03/04 03:34:41;;;;;;;41.45;25.38;;;;;;;-4.09;100.00;92693.47;4972689;28;20105;-86
2022/03/04 03:37:10;;;;;;;39.65;24.35;;;;;;;-4.03;100.00;92690.44;4972477;28;20055;-86
2022/03/04 03:39:38;;;;;;;37.70;25.52;;;;;;;-4.12;100.00;92693.75;4972751;28;20051;-86
2022/03/04 03:42:05;;;;;;;37.40;23.48;;;;;;;-4.41;100.00;92684.50;4972662;28;20054;-87
2022/03/04 03:44:32;;;;;;;37.70;23.98;;;;;;;-4.50;100.00;92697.84;4972548;28;20053;-87
2022/03/04 03:47:01;;;;;;;49.08;31.70;;;;;;;-4.67;100.00;92700.09;4950209;28;20098;-87
2022/03/04 03:49:29;;;;;;;60.35;34.83;;;;;;;-4.83;100.00;92698.88;4951671;28;20047;-87
2022/03/04 03:51:56;;;;;;;89.78;55.65;;;;;;;-4.99;100.00;92701.84;4953106;29;20047;-87
2022/03/04 03:54:23;;;;;;;91.22;55.92;;;;;;;-5.02;100.00;92702.13;4952907;29;20055;-88
2022/03/04 03:56:50;;;;;;;91.45;55.38;;;;;;;-5.10;100.00;92709.44;4953050;29;20055;-88
2022/03/04 03:59:18;;;;;;;80.97;48.53;;;;;;;-5.40;100.00;92701.88;4953142;29;20446;-88
2022/03/04 04:01:46;;;;;;;78.55;47.08;;;;;;;-5.48;100.00;92713.41;4953226;29;20130;-88
2022/03/04 04:04:12;;;;;;;79.97;45.90;;;;;;;-5.47;100.00;92715.78;4952759;29;20081;-88
2022/03/04 04:06:42;;;;;;;71.18;43.17;;;;;;;-5.55;100.00;92718.13;4953594;29;20043;-87
2022/03/04 04:09:13;;;;;;;84.63;45.60;;;;;;;-5.56;100.00;92717.31;4952890;29;20055;-88
2022/03/04 04:11:41;;;;;;;70.07;43.35;;;;;;;-5.41;100.00;92717.00;4952916;29;20055;-88
2022/03/04 04:14:11;;;;;;;72.85;43.95;;;;;;;-5.45;100.00;92706.44;4952731;29;20059;-88
2022/03/04 04:16:38;;;;;;;74.97;43.45;;;;;;;-5.25;100.00;92717.34;4952993;29;20050;-88
2022/03/04 04:19:05;;;;;;;77.57;45.78;;;;;;;-5.30;100.00;92714.41;4952776;29;20058;-88
2022/03/04 04:21:34;;;;;;;78.25;44.85;;;;;;;-5.41;100.00;92686.97;4952809;29;20134;-88
2022/03/04 04:24:02;;;;;;;77.30;46.45;;;;;;;-5.15;100.00;92724.06;4953094;29;20039;-88
2022/03/04 04:26:29;;;;;;;84.10;45.53;;;;;;;-5.13;100.00;92724.75;4952668;29;20051;-88
2022/03/04 04:28:56;;;;;;;82.45;45.75;;;;;;;-5.25;100.00;92724.03;4952844;29;20438;-87
2022/03/04 04:31:25;;;;;;;77.55;47.30;;;;;;;-5.20;100.00;92726.19;4952620;29;20414;-88
2022/03/04 04:33:53;;;;;;;81.43;47.70;;;;;;;-5.01;100.00;92725.44;4952703;29;20047;-87
2022/03/04 04:36:21;;;;;;;76.97;46.28;;;;;;;-4.97;100.00;92715.06;4952789;29;20156;-88
2022/03/04 04:38:48;;;;;;;78.80;45.63;;;;;;;-4.86;100.00;92725.88;4952792;29;20047;-88
2022/03/04 04:41:17;;;;;;;68.68;42.70;;;;;;;-4.77;100.00;92725.09;4953686;28;20051;-87
2022/03/04 04:43:43;;;;;;;65.88;39.53;;;;;;;-4.63;100.00;92723.94;4956452;29;20066;-88
2022/03/04 04:46:10;;;;;;;64.53;37.28;;;;;;;-4.49;100.00;92734.53;4956398;29;20055;-87
2022/03/04 04:48:37;;;;;;;57.38;34.85;;;;;;;-4.59;100.00;92711.94;4956888;29;20057;-88
2022/03/04 04:51:04;;;;;;;57.08;32.85;;;;;;;-4.54;100.00;92722.38;4956703;29;20122;-88
2022/03/04 04:53:32;;;;;;;54.92;32.95;;;;;;;-4.47;100.00;92730.16;4956634;29;20701;-88
2022/03/04 04:55:59;;;;;;;55.03;35.00;;;;;;;-4.44;100.00;92732.44;4956241;29;20399;-88
2022/03/04 04:58:28;;;;;;;54.47;35.08;;;;;;;-4.44;100.00;92735.72;4956005;29;20047;-88
2022/03/04 05:00:55;;;;;;;49.45;32.05;;;;;;;-4.26;100.00;92736.78;4956117;29;20047;-87
2022/03/04 05:03:22;;;;;;;53.55;34.88;;;;;;;-4.24;100.00;92740.75;4956369;29;20098;-87
2022/03/04 05:05:49;;;;;;;61.58;39.70;;;;;;;-4.04;100.00;92741.53;4956220;29;20058;-88
2022/03/04 05:08:16;;;;;;;59.58;33.75;;;;;;;-4.15;100.00;92736.66;4956157;29;20051;-88
2022/03/04 05:10:43;;;;;;;64.78;38.90;;;;;;;-4.21;100.00;92737.97;4955904;29;20047;-87
2022/03/04 05:13:12;;;;;;;56.28;35.42;;;;;;;-4.22;100.00;92745.66;4955605;29;20520;-88
2022/03/04 05:15:41;;;;;;;49.80;29.60;;;;;;;-4.11;100.00;92742.19;4955997;29;20055;-88
2022/03/04 05:18:08;;;;;;;53.50;29.90;;;;;;;-4.23;100.00;92739.03;4956021;29;20125;-88
2022/03/04 05:20:35;;;;;;;59.35;32.15;;;;;;;-4.19;100.00;92725.31;4955825;29;20565;-88
2022/03/04 05:23:01;;;;;;;43.95;27.88;;;;;;;-4.07;100.00;92741.78;4955776;29;20070;-88
2022/03/04 05:25:29;;;;;;;44.90;29.20;;;;;;;-3.91;100.00;92746.28;4955645;29;20055;-88
2022/03/04 05:27:56;;;;;;;55.88;31.77;;;;;;;-4.22;100.00;92740.63;4955908;29;20047;-88
2022/03/04 05:30:23;;;;;;;54.95;30.77;;;;;;;-4.33;100.00;92734.81;4955565;29;20490;-88
2022/03/04 05:32:51;;;;;;;54.72;32.03;;;;;;;-4.20;100.00;92752.13;4955722;29;20047;-88
2022/03/04 05:35:18;;;;;;;48.60;29.38;;;;;;;-4.10;100.00;92749.59;4955590;29;20055;-88
2022/03/04 05:37:45;;;;;;;54.20;32.60;;;;;;;-4.13;100.00;92731.53;4955434;29;20466;-87
2022/03/04 05:40:13;;;;;;;45.60;27.20;;;;;;;-3.83;100.00;92750.66;4955106;29;20055;-88
2022/03/04 05:42:40;;;;;;;48.88;29.55;;;;;;;-3.83;100.00;92737.28;4955398;29;20055;-89
2022/03/04 05:45:07;;;;;;;48.38;29.45;;;;;;;-3.77;100.00;92751.81;4953428;28;20524;-88
2022/03/04 05:47:40;;;;;;;41.75;27.10;;;;;;;-3.77;100.00;92754.31;4955222;29;20055;-89
2022/03/04 05:50:10;;;;;;;55.80;31.08;;;;;;;-3.71;100.00;92758.81;4955330;29;20082;-89
2022/03/04 05:52:39;;;;;;;57.33;31.60;;;;;;;-3.66;100.00;92758.44;4954943;28;20048;-88
2022/03/04 05:55:07;;;;;;;57.78;30.95;;;;;;;-3.85;100.00;92711.56;4955391;29;20417;-89
2022/03/04 05:57:34;;;;;;;49.28;28.63;;;;;;;-3.47;100.00;92765.13;4954572;29;20544;-88
2022/03/04 06:00:03;;;;;;;56.90;34.72;;;;;;;-3.50;100.00;92748.63;4955002;29;20517;-89
2022/03/04 06:02:31;;;;;;;53.33;31.52;;;;;;;-3.34;100.00;92762.31;4955027;29;20685;-89
2022/03/04 06:04:57;;;;;;;54.60;31.55;;;;;;;-3.33;100.00;92760.59;4955012;29;20051;-88
2022/03/04 06:07:28;;;;;;;52.85;33.65;;;;;;;-3.41;100.00;92738.66;4955483;29;20111;-88
2022/03/04 06:09:54;;;;;;;45.08;28.10;;;;;;;-3.45;100.00;92759.97;4954898;29;20051;-89
2022/03/04 06:12:24;;;;;;;53.28;29.95;;;;;;;-3.44;100.00;92756.50;4954704;29;20047;-89
2022/03/04 06:14:50;;;;;;;58.67;31.83;;;;;;;-3.29;100.00;92757.66;4954789;29;20062;-89
2022/03/04 06:17:22;;;;;;;51.70;31.27;;;;;;;-3.18;100.00;92753.41;4954793;29;20051;-89
2022/03/04 06:19:48;;;;;;;56.00;32.08;;;;;;;-3.22;100.00;92735.31;4954583;29;20047;-90
2022/03/04 06:22:18;;;;;;;72.00;39.83;;;;;;;-3.23;100.00;92746.28;4954841;29;20059;-89
2022/03/04 06:24:48;;;;;;;81.00;44.85;;;;;;;-3.29;100.00;92752.66;4954589;29;20051;-89
2022/03/04 06:27:16;;;;;;;74.35;40.33;;;;;;;-3.32;100.00;92752.94;4954567;29;20059;-89
2022/03/04 06:29:43;;;;;;;69.45;39.10;;;;;;;-3.11;100.00;92747.69;4954606;29;20052;-90
2022/03/04 06:32:11;;;;;;;65.28;35.95;;;;;;;-3.24;100.00;92737.97;4954466;29;20051;-89
2022/03/04 06:34:38;;;;;;;62.33;34.78;;;;;;;-3.30;100.00;92750.25;4954677;29;20054;-90
2022/03/04 06:37:06;;;;;;;63.75;34.70;;;;;;;-3.53;100.00;92728.78;4954549;29;20406;-89
2022/03/04 06:39:33;;;;;;;71.05;36.75;;;;;;;-3.66;100.00;92751.66;4954538;29;20047;-90
2022/03/04 06:42:02;;;;;;;73.97;36.50;;;;;;;-3.68;100.00;92753.53;4954353;29;20502;-91
2022/03/04 06:44:30;;;;;;;79.93;38.70;;;;;;;-3.65;100.00;92758.28;4954286;29;20047;-90
2022/03/04 06:46:58;;;;;;;82.68;42.83;;;;;;;-3.94;100.00;92730.72;4954086;29;20106;-90
2022/03/04 06:49:25;;;;;;;72.15;39.60;;;;;;;-3.66;100.00;92756.69;4954170;29;20446;-91
2022/03/04 06:51:53;;;;;;;65.93;38.17;;;;;;;-3.39;100.00;92754.38;4954329;29;20047;-91
2022/03/04 06:54:20;;;;;;;63.58;39.42;;;;;;;-3.24;100.00;92749.75;4954076;29;20051;-91
2022/03/04 06:56:57;;;;;;;64.38;36.65;;;;;;;-3.24;100.00;92734.66;4954017;29;20055;-93
2022/03/04 06:59:32;;;;;;;65.13;37.83;;;;;;;-2.99;100.00;92765.13;4955491;29;20066;-93
2022/03/04 07:01:59;;;;;;;67.22;36.25;;;;;;;-2.86;100.00;92764.81;4954153;29;20109;-92
2022/03/04 07:04:26;;;;;;;66.07;37.97;;;;;;;-2.66;100.00;92770.53;4953925;28;20130;-93
2022/03/04 07:06:53;;;;;;;61.50;35.33;;;;;;;-2.67;100.00;92743.81;4953961;29;20441;-92
2022/03/04 07:09:20;;;;;;;60.25;33.42;;;;;;;-2.66;100.00;92729.50;4953853;29;20454;-91
2022/03/04 07:11:50;;;;;;;60.55;35.30;;;;;;;-2.44;100.00;92769.34;4953581;29;20059;-93
2022/03/04 07:14:17;;;;;;;67.63;38.67;;;;;;;-2.31;100.00;92770.75;4954198;29;20251;-93
2022/03/04 07:16:46;;;;;;;54.03;32.33;;;;;;;-2.21;100.00;92775.72;4953628;29;20098;-93
2022/03/04 07:19:14;;;;;;;60.47;34.75;;;;;;;-2.05;100.00;92773.34;4953578;29;20098;-94
2022/03/04 07:21:46;;;;;;;69.22;38.28;;;;;;;-2.49;100.00;92732.97;4953496;29;20051;-93
2022/03/04 07:24:20;;;;;;;71.13;36.45;;;;;;;-2.13;100.00;92775.78;4953579;29;20482;-93
2022/03/04 07:26:47;;;;;;;58.55;34.95;;;;;;;-1.86;100.00;92775.88;4953668;29;20047;-93
2022/03/04 07:29:13;;;;;;;64.00;35.53;;;;;;;-1.81;100.00;92756.09;4953860;29;20047;-91
2022/03/04 07:31:42;;;;;;;62.55;33.25;;;;;;;-1.44;100.00;92779.50;4953384;29;20066;-94
2022/03/04 07:34:16;;;;;;;59.90;34.25;;;;;;;-1.36;100.00;92770.25;4953495;29;20077;-89
2022/03/04 07:36:46;;;;;;;64.15;36.88;;;;;;;-1.07;100.00;92780.97;4953155;29;20418;-92
2022/03/04 07:39:13;;;;;;;62.53;35.10;;;;;;;-0.86;100.00;92770.53;4953318;29;20043;-93
2022/03/04 07:41:40;;;;;;;63.05;36.53;;;;;;;-0.70;100.00;92779.88;4953218;29;20047;-92
2022/03/04 07:44:07;;;;;;;62.03;33.15;;;;;;;-0.55;100.00;92776.78;4953376;29;21063;-92
2022/03/04 07:46:36;;;;;;;56.20;34.10;;;;;;;-0.38;100.00;92777.63;4951150;28;20047;-93
2022/03/04 07:49:06;;;;;;;72.63;37.67;;;;;;;-0.38;100.00;92770.06;4953153;29;20086;-94
2022/03/04 07:51:39;;;;;;;72.63;36.42;;;;;;;-0.63;100.00;92746.47;4953095;29;20047;-94
2022/03/04 07:54:18;;;;;;;;;;;;;;;;;;;;;
2022/03/04 07:56:47;;;;;;;69.55;36.45;;;;;;;-0.70;100.00;92774.84;4952915;29;20379;-94
2022/03/04 07:59:47;;;;;;;;;;;;;;;;;;;;;
2022/03/04 08:02:39;;;;;;;77.70;39.25;;;;;;;-0.52;100.00;92773.94;4946383;29;20075;-94
2022/03/04 08:05:09;;;;;;;76.15;39.30;;;;;;;-0.37;100.00;92779.19;4948971;29;20134;-95
2022/03/04 08:08:02;;;;;;;66.65;36.42;;;;;;;-0.38;100.00;92765.00;4953124;29;20458;-96
2022/03/04 08:10:30;;;;;;;73.55;39.17;;;;;;;-0.25;100.00;92751.94;4949145;29;20059;-92
2022/03/04 08:13:01;;;;;;;65.38;34.60;;;;;;;-0.19;100.00;92753.84;4952878;29;20063;-93
2022/03/04 08:15:30;;;;;;;65.75;32.13;;;;;;;-0.17;100.00;92763.78;4952209;28;20063;-94
2022/03/04 08:17:56;;;;;;;62.60;32.35;;;;;;;-0.15;100.00;92772.78;4952618;29;20059;-93
2022/03/04 08:20:33;;;;;;;;;;;;;;;;;;;;;
2022/03/04 08:23:03;;;;;;;63.60;29.95;;;;;;;-0.18;100.00;92764.75;4945839;29;20055;-92
2022/03/04 08:25:29;;;;;;;59.28;31.10;;;;;;;0.03;100.00;92771.88;4952634;29;20051;-91
2022/03/04 08:28:00;;;;;;;62.78;31.08;;;;;;;0.20;100.00;92770.16;4952648;29;20391;-91
2022/03/04 08:30:27;;;;;;;52.33;29.50;;;;;;;0.31;100.00;92780.88;4952799;29;20058;-91
2022/03/04 08:32:55;;;;;;;54.83;29.90;;;;;;;0.27;100.00;92785.47;4952512;29;20058;-90
2022/03/04 08:35:22;;;;;;;54.78;28.83;;;;;;;0.40;100.00;92779.94;4952448;29;20059;-89
2022/03/04 08:37:49;;;;;;;50.78;28.80;;;;;;;0.64;100.00;92761.47;4952596;29;20059;-89
2022/03/04 08:40:19;;;;;;;55.78;26.77;;;;;;;1.03;100.00;92780.19;4950436;28;20071;-86
2022/03/04 08:42:51;;;;;;;46.30;25.83;;;;;;;1.22;98.56;92774.91;4953257;28;20066;-89
2022/03/04 08:45:18;;;;;;;47.67;24.42;;;;;;;1.46;99.51;92779.13;4952713;29;20055;-89
2022/03/04 08:47:45;;;;;;;43.60;22.45;;;;;;;1.72;98.13;92778.81;4970825;28;20054;-88
2022/03/04 08:50:13;;;;;;;71.53;38.35;;;;;;;2.07;99.37;92783.56;4971920;28;20055;-88
2022/03/04 08:52:40;;;;;;;57.65;35.13;;;;;;;2.34;96.70;92784.00;4971773;28;20101;-87
2022/03/04 08:55:14;;;;;;;58.38;31.73;;;;;;;2.61;94.01;92773.50;4971603;28;20504;-86
2022/03/04 08:57:42;;;;;;;90.03;49.35;;;;;;;2.94;93.36;92784.16;4970909;28;20512;-88
2022/03/04 09:00:11;;;;;;;45.47;20.80;;;;;;;3.17;90.65;92785.84;4952286;29;20047;-87
2022/03/04 09:02:38;;;;;;;33.35;17.67;;;;;;;2.94;86.19;92780.81;4952637;29;20078;-88
2022/03/04 09:05:06;;;;;;;38.97;17.25;;;;;;;2.98;85.90;92773.66;4952408;29;20087;-87
2022/03/04 09:07:37;;;;;;;28.75;15.60;;;;;;;2.89;84.43;92772.94;4952395;29;20047;-87
2022/03/04 09:10:05;;;;;;;27.60;15.10;;;;;;;3.07;82.91;92765.78;4951445;29;20043;-87
2022/03/04 09:12:33;;;;;;;33.65;14.60;;;;;;;3.01;82.75;92742.88;4951991;29;20052;-88
2022/03/04 09:15:01;;;;;;;28.73;16.42;;;;;;;3.50;89.73;92753.41;4952045;29;20051;-85
2022/03/04 09:17:28;;;;;;;35.45;17.63;;;;;;;4.06;90.01;92767.31;4951470;29;20137;-87
2022/03/04 09:19:55;;;;;;;25.45;12.82;;;;;;;4.32;82.76;92774.41;4951636;29;20413;-86
2022/03/04 09:22:21;;;;;;;25.67;13.93;;;;;;;4.39;75.96;92779.53;4952427;29;20067;-86
2022/03/04 09:24:48;;;;;;;52.90;26.00;;;;;;;4.81;81.74;92777.16;4952219;29;20057;-86
2022/03/04 09:27:15;;;;;;;81.00;39.00;;;;;;;5.15;80.86;92764.66;4952704;28;20051;-86
2022/03/04 09:29:42;;;;;;;33.35;16.73;;;;;;;5.42;76.08;92775.00;4955657;29;20047;-84
2022/03/04 09:32:10;;;;;;;22.17;11.55;;;;;;;4.94;71.98;92772.16;4955230;29;20098;-87
2022/03/04 09:34:37;;;;;;;33.35;12.57;;;;;;;5.03;70.34;92777.91;4959282;28;20043;-85
2022/03/04 09:37:04;;;;;;;26.55;12.73;;;;;;;4.58;71.03;92770.50;4974378;28;20054;-85
2022/03/04 09:39:31;;;;;;;16.00;9.57;;;;;;;4.42;74.05;92776.66;4974339;28;20051;-83
2022/03/04 09:41:59;;;;;;;13.98;8.27;;;;;;;4.80;73.93;92778.13;4975048;28;20055;-83
2022/03/04 09:44:26;;;;;;;12.13;6.97;;;;;;;5.02;67.22;92773.78;4967092;28;20138;-83
2022/03/04 09:46:56;;;;;;;11.50;7.47;;;;;;;5.36;72.46;92771.41;4955122;29;20055;-83
2022/03/04 09:49:34;;;;;;;12.18;6.68;;;;;;;5.62;63.01;92775.06;4955366;29;20059;-84
2022/03/04 09:52:01;;;;;;;18.73;10.57;;;;;;;5.83;70.21;92746.13;4954550;29;20051;-84
2022/03/04 09:54:29;;;;;;;10.57;6.90;;;;;;;5.63;63.97;92769.00;4954750;29;20048;-84
2022/03/04 09:56:57;;;;;;;12.02;7.60;;;;;;;4.73;64.04;92775.53;4954896;29;20055;-83
2022/03/04 09:59:24;;;;;;;14.88;7.05;;;;;;;5.03;68.60;92749.91;4955408;29;20051;-84
2022/03/04 10:01:51;;;;;;;13.48;6.50;;;;;;;5.46;69.17;92758.34;4955158;29;20138;-82
2022/03/04 10:04:18;;;;;;;13.00;7.80;;;;;;;5.78;69.13;92750.25;4955095;29;20047;-80
2022/03/04 10:06:49;;;;;;;8.30;5.50;;;;;;;5.05;63.21;92752.25;4954604;29;20054;-83
2022/03/04 10:09:35;;;;;;;11.32;6.47;;;;;;;5.12;67.72;92749.72;4954941;29;20592;-83
2022/03/04 10:12:05;;;;;;;11.48;6.45;;;;;;;5.59;68.38;92750.75;4955121;29;20047;-84
2022/03/04 10:14:33;;;;;;;14.82;5.70;;;;;;;5.56;59.47;92752.91;4954855;29;20506;-84
2022/03/04 10:17:02;;;;;;;10.10;6.25;;;;;;;5.25;64.08;92749.03;4954716;29;20055;-84
2022/03/04 10:19:29;;;;;;;12.48;5.75;;;;;;;5.10;62.90;92747.41;4954773;29;20450;-84
2022/03/04 10:21:59;;;;;;;11.10;6.07;;;;;;;4.97;61.04;92737.13;4954950;29;20051;-84
2022/03/04 10:24:29;;;;;;;9.77;5.38;;;;;;;5.01;62.07;92748.50;4954710;29;20051;-83
2022/03/04 10:27:01;;;;;;;13.35;6.25;;;;;;;5.01;63.49;92746.75;4954675;29;20134;-83
2022/03/04 10:29:30;;;;;;;10.02;7.07;;;;;;;5.23;62.44;92739.03;4954581;29;20058;-84
2022/03/04 10:32:15;;;;;;;13.18;6.75;;;;;;;5.56;65.21;92738.38;4954390;29;20114;-83
2022/03/04 10:34:47;;;;;;;15.90;7.70;;;;;;;5.46;63.79;92699.78;4954692;29;20052;-85
2022/03/04 10:37:16;;;;;;;13.52;6.13;;;;;;;5.79;63.55;92728.88;4954526;29;20062;-83
2022/03/04 10:40:07;;;;;;;11.65;6.75;;;;;;;5.77;63.60;92720.63;4953475;28;20071;-83
2022/03/04 10:42:48;;;;;;;12.27;6.65;;;;;;;5.75;64.99;92733.56;4954307;29;20139;-83
2022/03/04 10:45:18;;;;;;;14.25;7.22;;;;;;;5.74;62.48;92719.25;4954441;29;20058;-82
2022/03/04 10:47:51;;;;;;;11.25;6.65;;;;;;;5.92;63.31;92707.72;4954485;29;20051;-82
2022/03/04 10:50:26;;;;;;;10.27;6.40;;;;;;;6.13;59.98;92732.31;4954140;29;20047;-85
2022/03/04 10:52:58;;;;;;;10.32;7.50;;;;;;;5.69;59.20;92714.72;4954414;29;20051;-83
2022/03/04 10:55:26;;;;;;;13.32;7.15;;;;;;;6.11;64.82;92712.09;4954392;29;20122;-81
2022/03/04 10:57:53;;;;;;;13.57;6.57;;;;;;;5.86;60.59;92678.69;4954091;29;20518;-83
2022/03/04 11:00:25;;;;;;;13.07;7.13;;;;;;;6.03;62.85;92714.84;4954212;29;20442;-84
2022/03/04 11:02:52;;;;;;;15.55;8.02;;;;;;;6.53;63.45;92713.72;4954009;29;20051;-83
2022/03/04 11:05:20;;;;;;;11.30;7.35;;;;;;;6.51;61.93;92711.34;4954184;29;20154;-83
2022/03/04 11:07:47;;;;;;;11.35;6.95;;;;;;;5.98;59.35;92715.38;4954087;29;20070;-84
2022/03/04 11:10:15;;;;;;;11.75;6.40;;;;;;;5.60;60.09;92709.00;4953975;29;20051;-84
2022/03/04 11:12:44;;;;;;;13.80;7.97;;;;;;;6.01;62.36;92701.47;4953923;29;20058;-82
2022/03/04 11:15:13;;;;;;;8.88;6.00;;;;;;;6.38;61.33;92694.25;4953835;29;20079;-83
2022/03/04 11:17:40;;;;;;;12.18;6.65;;;;;;;5.92;59.14;92687.34;4953453;29;20056;-83
2022/03/04 11:20:09;;;;;;;17.92;6.60;;;;;;;5.57;59.18;92695.88;4953521;29;20055;-85
2022/03/04 11:22:39;;;;;;;12.07;6.72;;;;;;;5.33;59.65;92700.50;4953724;29;20051;-84
2022/03/04 11:25:10;;;;;;;10.23;6.63;;;;;;;5.33;59.02;92687.75;4953822;29;20043;-84